Time;durP1;ratioP1;P1;durP2;ratioP2;P2;SDS_P1;SDS_P2;PMS_P1;PMS_P2;Temp;Humidity;BMP_temperature;BMP_pressure;BME280_temperature;BME280_humidity;BME280_pressure;Samples;Min_cycle;Max_cycle;Signal;HPM_P1;HPM_P2
2022/06/21 00:00:15;;;;;;;;;;;11.30;99.90;;;;;;4980708;28;19924;-72
2022/06/21 00:02:41;;;;;;;;;;;11.30;99.90;;;;;;4998581;28;19927;-77
2022/06/21 00:05:12;;;;;;;;;;;11.30;99.90;;;;;;4999501;28;19923;-76
2022/06/21 00:07:37;;;;;;;;;;;11.20;99.90;;;;;;4997268;28;24041;-73
2022/06/21 00:10:03;;;;;;;;;;;11.20;99.90;;;;;;5000098;28;20745;-73
2022/06/21 00:12:29;;;;;;;;;;;11.10;99.90;;;;;;4999538;28;20707;-75
2022/06/21 00:14:54;;;;;;;;;;;11.00;99.90;;;;;;5000430;28;20085;-74
2022/06/21 00:17:21;;;;;;;;;;;11.00;99.90;;;;;;4983913;28;20056;-79
2022/06/21 00:19:46;;;;;;;;;;;11.00;99.90;;;;;;4999328;28;19927;-73
2022/06/21 00:22:13;;;;;;;;;;;11.10;99.90;;;;;;5000233;28;20010;-76
2022/06/21 00:24:39;;;;;;;;;;;11.00;99.90;;;;;;5002033;28;19923;-79
2022/06/21 00:27:10;;;;;;;;;;;10.90;99.90;;;;;;5001012;28;19916;-79
2022/06/21 00:29:35;;;;;;;;;;;10.90;99.90;;;;;;5000672;28;19959;-78
2022/06/21 00:32:02;;;;;;;;;;;11.00;99.90;;;;;;5000164;28;19915;-80
2022/06/21 00:34:28;;;;;;;;;;;10.90;99.90;;;;;;4984057;28;20017;-79
2022/06/21 00:36:53;;;;;;;;;;;10.90;99.90;;;;;;4981927;28;19928;-77
2022/06/21 00:39:19;;;;;;;;;;;10.90;99.90;;;;;;4999891;28;19927;-74
2022/06/21 00:42:05;;;;;;;;;;;10.90;99.90;;;;;;4980462;28;19916;-78
2022/06/21 00:44:38;;;;;;;;;;;10.90;99.90;;;;;;4974769;28;19919;-73
2022/06/21 00:47:27;;;;;;;;;;;11.00;99.90;;;;;;5000279;28;20643;-79
2022/06/21 00:49:52;;;;;;;;;;;11.10;99.90;;;;;;4988396;28;19916;-74
2022/06/21 00:52:21;;;;;;;;;;;11.20;99.90;;;;;;4998905;28;19916;-76
2022/06/21 00:54:52;;;;;;;;;;;11.10;99.90;;;;;;4980565;28;19927;-72
2022/06/21 00:57:20;;;;;;;;;;;11.00;99.90;;;;;;4995661;28;19920;-78
2022/06/21 00:59:48;;;;;;;;;;;11.00;99.90;;;;;;5000247;28;24167;-77
2022/06/21 01:02:16;;;;;;;;;;;10.90;99.90;;;;;;4996516;28;20326;-74
2022/06/21 01:04:45;;;;;;;;;;;10.90;99.90;;;;;;5000969;28;19927;-79
2022/06/21 01:07:12;;;;;;;;;;;10.90;99.90;;;;;;4998422;28;19924;-73
2022/06/21 01:09:50;;;;;;;;;;;10.90;99.90;;;;;;4977934;28;19916;-76
2022/06/21 01:12:23;;;;;;;;;;;10.90;99.90;;;;;;5002004;28;19927;-78
2022/06/21 01:15:17;;;;;;;;;;;10.90;99.90;;;;;;4998711;28;19928;-74
2022/06/21 01:17:43;;;;;;;;;;;10.90;99.90;;;;;;4976626;28;19968;-72
2022/06/21 01:20:11;;;;;;;;;;;11.00;99.90;;;;;;5001045;28;21304;-72
2022/06/21 01:22:36;;;;;;;;;;;11.00;99.90;;;;;;4979494;28;19970;-73
2022/06/21 01:25:07;;;;;;;;;;;11.00;99.90;;;;;;5000370;28;20812;-72
2022/06/21 01:27:33;;;;;;;;;;;11.00;99.90;;;;;;4980148;28;19923;-73
2022/06/21 01:29:59;;;;;;;;;;;11.10;99.90;;;;;;4998497;28;20495;-73
2022/06/21 01:32:25;;;;;;;;;;;11.10;99.90;;;;;;4996831;28;19927;-74
2022/06/21 01:34:50;;;;;;;;;;;11.10;99.90;;;;;;4998290;28;20238;-72
2022/06/21 01:37:18;;;;;;;;;;;11.00;99.90;;;;;;4995417;28;20436;-72
2022/06/21 01:40:10;;;;;;;;;;;11.00;99.90;;;;;;4996514;28;19920;-72
2022/06/21 01:42:41;;;;;;;;;;;10.90;99.90;;;;;;4994298;28;19998;-72
2022/06/21 01:45:09;;;;;;;;;;;10.90;99.90;;;;;;4998909;28;19916;-73
2022/06/21 01:47:39;;;;;;;;;;;10.90;99.90;;;;;;4979288;28;20220;-73
2022/06/21 01:50:07;;;;;;;;;;;10.90;99.90;;;;;;4999207;28;19916;-73
2022/06/21 01:52:35;;;;;;;;;;;10.80;99.90;;;;;;4999207;28;19923;-72
2022/06/21 01:55:11;;;;;;;;;;;10.90;99.90;;;;;;4967336;28;19920;-73
2022/06/21 01:57:37;;;;;;;;;;;10.90;99.90;;;;;;4997307;28;20222;-72
2022/06/21 02:00:04;;;;;;;;;;;10.90;99.90;;;;;;4997723;28;20634;-74
2022/06/21 02:02:31;;;;;;;;;;;10.90;99.90;;;;;;4996505;28;19966;-73
2022/06/21 02:05:06;;;;;;;;;;;10.90;99.90;;;;;;4978344;28;19916;-73
2022/06/21 02:07:33;;;;;;;;;;;10.90;99.90;;;;;;4978730;28;19947;-73
2022/06/21 02:10:13;;;;;;;;;;;11.00;99.90;;;;;;4997712;28;20027;-73
2022/06/21 02:12:41;;;;;;;;;;;10.90;99.90;;;;;;4975683;28;19923;-73
2022/06/21 02:15:08;;;;;;;;;;;10.90;99.90;;;;;;4996019;28;20298;-73
2022/06/21 02:17:35;;;;;;;;;;;10.80;99.90;;;;;;4996419;28;19985;-73
2022/06/21 02:20:05;;;;;;;;;;;10.70;99.90;;;;;;4997925;28;19923;-72
2022/06/21 02:22:31;;;;;;;;;;;10.60;99.90;;;;;;4977988;28;20334;-72
2022/06/21 02:24:57;;;;;;;;;;;10.60;99.90;;;;;;4996591;28;19923;-72
2022/06/21 02:27:23;;;;;;;;;;;10.60;99.90;;;;;;4996623;28;20281;-72
2022/06/21 02:29:51;;;;;;;;;;;10.60;99.90;;;;;;4996181;28;20700;-72
2022/06/21 02:32:28;;;;;;;;;;;10.60;99.90;;;;;;4994362;28;19916;-72
2022/06/21 02:34:57;;;;;;;;;;;10.70;99.90;;;;;;4998134;28;21320;-73
2022/06/21 02:37:23;;;;;;;;;;;10.70;99.90;;;;;;4996730;28;21432;-73
2022/06/21 02:39:49;;;;;;;;;;;10.60;99.90;;;;;;4997725;28;19952;-73
2022/06/21 02:42:20;;;;;;;;;;;10.60;99.90;;;;;;4997235;28;19965;-73
2022/06/21 02:44:51;;;;;;;;;;;10.60;99.90;;;;;;4996392;28;24381;-73
2022/06/21 02:47:20;;;;;;;;;;;10.50;99.90;;;;;;4997564;28;19923;-73
2022/06/21 02:49:55;;;;;;;;;;;10.50;99.90;;;;;;4997366;28;20371;-73
2022/06/21 02:52:24;;;;;;;;;;;10.50;99.90;;;;;;4997452;28;20595;-73
2022/06/21 02:54:54;;;;;;;;;;;10.40;99.90;;;;;;4998598;28;21609;-73
2022/06/21 02:57:22;;;;;;;;;;;10.40;99.90;;;;;;4981993;28;19920;-72
2022/06/21 02:59:48;;;;;;;;;;;10.30;99.90;;;;;;5002384;28;20242;-73
2022/06/21 03:02:15;;;;;;;;;;;10.40;99.90;;;;;;4999987;28;19942;-73
2022/06/21 03:04:51;;;;;;;;;;;10.50;99.90;;;;;;5001885;28;21323;-73
2022/06/21 03:07:21;;;;;;;;;;;10.60;99.90;;;;;;4999981;28;20204;-73
2022/06/21 03:09:47;;;;;;;;;;;10.60;99.90;;;;;;4995620;28;20306;-73
2022/06/21 03:12:17;;;;;;;;;;;10.50;99.90;;;;;;4983534;28;19916;-73
2022/06/21 03:14:44;;;;;;;;;;;10.60;99.90;;;;;;4997675;28;20414;-72
2022/06/21 03:17:10;;;;;;;;;;;10.70;99.90;;;;;;5000098;28;19964;-72
2022/06/21 03:19:54;;;;;;;;;;;10.70;99.90;;;;;;5000357;28;19916;-73
2022/06/21 03:22:24;;;;;;;;;;;10.60;99.90;;;;;;4998344;28;20766;-72
2022/06/21 03:24:51;;;;;;;;;;;10.60;99.90;;;;;;4998922;28;22076;-72
2022/06/21 03:27:55;;;;;;;;;;;10.50;99.90;;;;;;4998490;28;19982;-72
2022/06/21 03:30:23;;;;;;;;;;;10.20;99.90;;;;;;4914611;28;19953;-73
2022/06/21 03:32:49;;;;;;;;;;;10.10;99.90;;;;;;4915910;28;20376;-73
2022/06/21 03:35:15;;;;;;;;;;;10.10;99.90;;;;;;4910359;28;19918;-73
2022/06/21 03:37:42;;;;;;;;;;;10.10;99.90;;;;;;4908651;28;20729;-73
2022/06/21 03:42:54;;;;;;;;;;;9.80;99.90;;;;;;4913704;28;19924;-73
2022/06/21 03:45:32;;;;;;;;;;;9.80;99.90;;;;;;4915605;28;20360;-73
2022/06/21 03:48:17;;;;;;;;;;;9.70;99.90;;;;;;4914886;28;19917;-75
2022/06/21 03:50:46;;;;;;;;;;;9.80;99.90;;;;;;4914056;28;20752;-72
2022/06/21 03:53:16;;;;;;;;;;;10.00;99.90;;;;;;4918041;28;21447;-73
2022/06/21 03:55:59;;;;;;;;;;;10.10;99.90;;;;;;4896693;28;20410;-74
2022/06/21 03:58:28;;;;;;;;;;;10.10;99.90;;;;;;4914292;28;19953;-73
2022/06/21 04:00:54;;;;;;;;;;;10.10;99.90;;;;;;4933666;28;19964;-72
2022/06/21 04:03:40;;;;;;;;;;;10.10;99.90;;;;;;5001040;28;20271;-72
2022/06/21 04:06:10;;;;;;;;;;;10.10;99.90;;;;;;4976052;28;19977;-72
2022/06/21 04:08:45;;;;;;;;;;;10.10;99.90;;;;;;4983957;28;20594;-75
2022/06/21 04:11:14;;;;;;;;;;;10.10;99.90;;;;;;4998824;28;20748;-72
2022/06/21 04:13:54;;;;;;;;;;;10.10;99.90;;;;;;4998684;28;20353;-73
2022/06/21 04:16:36;;;;;;;;;;;10.10;99.90;;;;;;4980071;28;20645;-73
2022/06/21 04:19:07;;;;;;;;;;;10.00;99.90;;;;;;4981811;28;19926;-75
2022/06/21 04:21:42;;;;;;;;;;;9.90;99.90;;;;;;4981805;28;20493;-73
2022/06/21 04:24:14;;;;;;;;;;;9.90;99.90;;;;;;5000147;28;19917;-73
2022/06/21 04:26:45;;;;;;;;;;;10.00;99.90;;;;;;4995821;28;20338;-73
2022/06/21 04:29:14;;;;;;;;;;;10.10;99.90;;;;;;4999900;28;20022;-74
2022/06/21 04:31:51;;;;;;;;;;;10.20;99.90;;;;;;4984069;28;19915;-72
2022/06/21 04:34:19;;;;;;;;;;;10.20;99.90;;;;;;5000756;28;19923;-72
2022/06/21 04:37:08;;;;;;;;;;;10.30;99.90;;;;;;4998794;28;19951;-72
2022/06/21 04:39:33;;;;;;;;;;;10.30;99.90;;;;;;4988501;28;20032;-75
2022/06/21 04:42:11;;;;;;;;;;;10.30;99.90;;;;;;5000354;28;19916;-72
2022/06/21 04:44:58;;;;;;;;;;;10.40;99.90;;;;;;5003799;28;19916;-73
2022/06/21 04:47:30;;;;;;;;;;;10.50;99.90;;;;;;4997923;28;19916;-72
2022/06/21 04:49:59;;;;;;;;;;;10.50;99.90;;;;;;4999558;28;20290;-72
2022/06/21 04:52:37;;;;;;;;;;;10.60;99.90;;;;;;4978685;28;20320;-72
2022/06/21 04:55:03;;;;;;;;;;;10.70;99.90;;;;;;4998537;28;20511;-73
2022/06/21 04:57:30;;;;;;;;;;;10.80;99.90;;;;;;4999336;28;19926;-73
2022/06/21 04:59:59;;;;;;;;;;;11.00;99.90;;;;;;4997313;28;19916;-74
2022/06/21 05:02:27;;;;;;;;;;;11.10;99.90;;;;;;4999283;28;19927;-72
2022/06/21 05:05:02;;;;;;;;;;;11.30;99.90;;;;;;4997002;28;20023;-72
2022/06/21 05:07:30;;;;;;;;;;;11.50;99.90;;;;;;4980078;28;19915;-75
2022/06/21 05:09:57;;;;;;;;;;;11.70;99.90;;;;;;4997440;28;21288;-73
2022/06/21 05:12:37;;;;;;;;;;;11.80;99.90;;;;;;4978879;28;19923;-73
2022/06/21 05:15:16;;;;;;;;;;;11.90;99.90;;;;;;4979110;28;19924;-75
2022/06/21 05:17:43;;;;;;;;;;;12.10;99.90;;;;;;4998694;28;19919;-73
2022/06/21 05:20:15;;;;;;;;;;;12.20;99.90;;;;;;5000193;28;19916;-73
2022/06/21 05:22:42;;;;;;;;;;;12.30;99.90;;;;;;4981299;28;20226;-73
2022/06/21 05:25:22;;;;;;;;;;;12.40;99.90;;;;;;4998420;28;19922;-73
2022/06/21 05:27:51;;;;;;;;;;;12.70;99.90;;;;;;4998040;28;20609;-75
2022/06/21 05:30:23;;;;;;;;;;;12.70;99.90;;;;;;4996003;28;19991;-72
2022/06/21 05:32:52;;;;;;;;;;;12.80;99.90;;;;;;4979599;28;20280;-73
2022/06/21 05:35:20;;;;;;;;;;;12.90;99.90;;;;;;4996983;28;19927;-75
2022/06/21 05:38:01;;;;;;;;;;;12.90;99.90;;;;;;4997825;28;20046;-72
2022/06/21 05:40:36;;;;;;;;;;;13.00;99.90;;;;;;5000239;28;20188;-72
2022/06/21 05:43:02;;;;;;;;;;;13.20;99.90;;;;;;4997363;28;19942;-73
2022/06/21 05:45:33;;;;;;;;;;;13.20;99.90;;;;;;4995519;28;21594;-73
2022/06/21 05:48:00;;;;;;;;;;;13.40;99.90;;;;;;4997618;28;19916;-73
2022/06/21 05:50:28;;;;;;;;;;;13.40;99.90;;;;;;4999148;28;19943;-76
2022/06/21 05:52:56;;;;;;;;;;;13.50;99.90;;;;;;4997292;28;19916;-74
2022/06/21 05:55:24;;;;;;;;;;;13.50;99.90;;;;;;4979679;28;19951;-75
2022/06/21 05:57:52;;;;;;;;;;;13.60;99.90;;;;;;4995411;28;19917;-73
2022/06/21 06:00:22;;;;;;;;;;;13.60;99.90;;;;;;4993185;28;20015;-74
2022/06/21 06:02:49;;;;;;;;;;;13.70;99.90;;;;;;4998235;28;24430;-73
2022/06/21 06:05:18;;;;;;;;;;;13.70;99.90;;;;;;4979701;28;20342;-74
2022/06/21 06:07:47;;;;;;;;;;;13.80;99.90;;;;;;4996976;28;21341;-75
2022/06/21 06:10:13;;;;;;;;;;;13.90;99.90;;;;;;4997527;28;19916;-72
2022/06/21 06:12:46;;;;;;;;;;;14.00;99.90;;;;;;4996990;28;19920;-73
2022/06/21 06:15:19;;;;;;;;;;;14.10;99.90;;;;;;4999371;28;19924;-74
2022/06/21 06:17:51;;;;;;;;;;;14.20;99.90;;;;;;4998486;28;19916;-73
2022/06/21 06:20:21;;;;;;;;;;;14.20;99.90;;;;;;4998217;28;19916;-72
2022/06/21 06:23:05;;;;;;;;;;;14.20;99.90;;;;;;4994720;28;20323;-72
2022/06/21 06:25:43;;;;;;;;;;;14.20;99.90;;;;;;5001537;28;24102;-73
2022/06/21 06:28:18;;;;;;;;;;;14.30;99.90;;;;;;4999053;28;19939;-73
2022/06/21 06:30:46;;;;;;;;;;;14.30;99.90;;;;;;5001904;28;19955;-72
2022/06/21 06:33:11;;;;;;;;;;;14.40;99.90;;;;;;4983278;28;19928;-73
2022/06/21 06:35:37;;;;;;;;;;;14.40;99.90;;;;;;5003143;28;19970;-72
2022/06/21 06:38:03;;;;;;;;;;;14.50;99.90;;;;;;4998828;28;24265;-71
2022/06/21 06:40:31;;;;;;;;;;;14.50;99.90;;;;;;5005032;28;19955;-73
2022/06/21 06:43:01;;;;;;;;;;;14.60;99.90;;;;;;4983195;28;19955;-74
2022/06/21 06:45:29;;;;;;;;;;;14.60;99.90;;;;;;5000875;28;19971;-72
2022/06/21 06:48:02;;;;;;;;;;;14.70;99.90;;;;;;5002688;28;24145;-72
2022/06/21 06:50:41;;;;;;;;;;;14.80;99.90;;;;;;5002167;28;19916;-72
2022/06/21 06:53:09;;;;;;;;;;;14.70;99.90;;;;;;5001649;28;19930;-73
2022/06/21 06:55:34;;;;;;;;;;;14.80;99.90;;;;;;4981974;28;19948;-74
2022/06/21 06:58:00;;;;;;;;;;;14.80;99.90;;;;;;4994999;28;19926;-73
2022/06/21 07:00:32;;;;;;;;;;;14.90;99.90;;;;;;4983393;28;21920;-73
2022/06/21 07:03:12;;;;;;;;;;;14.90;99.90;;;;;;5002774;28;19916;-73
2022/06/21 07:05:48;;;;;;;;;;;14.90;99.90;;;;;;4999033;28;20315;-74
2022/06/21 07:08:13;;;;;;;;;;;14.90;99.90;;;;;;4999838;28;20685;-72
2022/06/21 07:10:39;;;;;;;;;;;15.00;99.90;;;;;;4999923;28;20601;-73
2022/06/21 07:13:05;;;;;;;;;;;15.10;99.90;;;;;;4998468;28;24360;-73
2022/06/21 07:15:35;;;;;;;;;;;15.20;99.90;;;;;;4979303;28;20828;-74
2022/06/21 07:18:01;;;;;;;;;;;15.30;99.90;;;;;;4989288;28;20788;-74
2022/06/21 07:20:30;;;;;;;;;;;15.30;99.90;;;;;;4979943;28;24209;-74
2022/06/21 07:22:55;;;;;;;;;;;15.40;99.90;;;;;;4980728;28;19946;-73
2022/06/21 07:25:27;;;;;;;;;;;15.50;99.90;;;;;;4982685;28;19927;-73
2022/06/21 07:27:58;;;;;;;;;;;15.60;99.90;;;;;;4991952;28;20214;-74
2022/06/21 07:30:28;;;;;;;;;;;15.70;99.90;;;;;;5087232;28;19916;-74
2022/06/21 07:32:56;;;;;;;;;;;15.90;99.90;;;;;;5085213;28;19923;-74
2022/06/21 07:35:29;;;;;;;;;;;16.00;99.90;;;;;;5078262;28;19913;-73
2022/06/21 07:37:58;;;;;;;;;;;16.10;99.90;;;;;;5070656;28;20053;-74
2022/06/21 07:40:27;;;;;;;;;;;16.20;99.90;;;;;;5083955;28;19923;-74
2022/06/21 07:42:58;;;;;;;;;;;16.30;99.90;;;;;;5084702;28;19913;-74
2022/06/21 07:45:50;;;;;;;;;;;16.50;99.90;;;;;;5064512;28;19923;-73
2022/06/21 07:48:16;;;;;;;;;;;16.50;99.90;;;;;;5077172;28;20263;-73
2022/06/21 07:50:47;;;;;;;;;;;16.70;99.90;;;;;;5081018;28;19919;-74
2022/06/21 07:53:19;;;;;;;;;;;16.80;99.90;;;;;;5090979;28;19916;-72
2022/06/21 07:55:47;;;;;;;;;;;17.00;99.90;;;;;;5076812;28;20320;-74
2022/06/21 07:58:34;;;;;;;;;;;17.20;99.90;;;;;;5053576;28;20012;-75
2022/06/21 08:06:42;;;;;;;;;;;18.00;99.90;;;;;;5001966;28;20076;-73
2022/06/21 08:09:13;;;;;;;;;;;18.40;99.90;;;;;;5002069;28;19920;-72
2022/06/21 08:11:40;;;;;;;;;;;18.70;99.90;;;;;;4999636;28;19916;-73
2022/06/21 08:14:07;;;;;;;;;;;18.80;99.90;;;;;;4979700;28;19932;-74
2022/06/21 08:16:44;;;;;;;;;;;18.70;99.90;;;;;;4999709;28;19916;-74
2022/06/21 08:19:30;;;;;;;;;;;19.00;99.90;;;;;;4998956;28;19916;-73
2022/06/21 08:22:19;;;;;;;;;;;19.40;99.90;;;;;;5062488;28;20366;-74
2022/06/21 08:24:58;;;;;;;;;;;19.90;99.90;;;;;;5062018;28;19942;-74
2022/06/21 08:27:24;;;;;;;;;;;20.60;99.90;;;;;;5069339;28;20219;-74
2022/06/21 08:29:49;;;;;;;;;;;21.10;99.90;;;;;;5092747;28;19924;-73
2022/06/21 08:32:33;;;;;;;;;;;21.40;99.90;;;;;;5073255;28;19913;-73
2022/06/21 08:35:10;;;;;;;;;;;21.60;99.90;;;;;;5062113;28;19920;-74
2022/06/21 08:38:02;;;;;;;;;;;21.60;99.30;;;;;;5085552;28;19913;-73
2022/06/21 08:40:30;;;;;;;;;;;22.00;98.30;;;;;;5060612;28;19912;-75
2022/06/21 08:43:10;;;;;;;;;;;21.90;98.70;;;;;;5078804;28;19924;-74
2022/06/21 08:45:50;;;;;;;;;;;21.90;99.40;;;;;;5063611;28;20326;-74
2022/06/21 08:48:28;;;;;;;;;;;22.20;97.30;;;;;;5065362;28;19913;-74
2022/06/21 08:51:06;;;;;;;;;;;22.30;97.50;;;;;;5052682;28;19947;-75
2022/06/21 08:53:31;;;;;;;;;;;22.40;97.80;;;;;;5000876;28;19931;-74
2022/06/21 08:56:01;;;;;;;;;;;22.70;97.30;;;;;;4998261;28;20243;-74
2022/06/21 08:58:26;;;;;;;;;;;22.70;97.30;;;;;;5001454;28;19974;-74
2022/06/21 09:00:52;;;;;;;;;;;23.10;97.70;;;;;;5000609;28;19928;-76
2022/06/21 09:03:21;;;;;;;;;;;23.40;94.50;;;;;;4986986;28;19916;-74
2022/06/21 09:05:57;;;;;;;;;;;23.20;95.20;;;;;;4998235;28;19916;-74
2022/06/21 09:08:35;;;;;;;;;;;23.10;95.70;;;;;;5002677;28;19920;-74
2022/06/21 09:11:23;;;;;;;;;;;23.40;95.30;;;;;;5000448;28;20617;-74
2022/06/21 09:14:02;;;;;;;;;;;23.40;95.00;;;;;;5000672;28;20001;-73
2022/06/21 09:16:27;;;;;;;;;;;23.30;94.80;;;;;;4991034;28;20836;-73
2022/06/21 09:19:08;;;;;;;;;;;23.20;95.20;;;;;;5059481;28;19990;-74
2022/06/21 09:21:39;;;;;;;;;;;23.30;95.70;;;;;;5086142;28;19958;-74
2022/06/21 09:24:11;;;;;;;;;;;22.70;94.30;;;;;;5083328;28;19913;-73
2022/06/21 09:26:40;;;;;;;;;;;22.30;94.80;;;;;;5078949;28;19912;-74
2022/06/21 09:29:19;;;;;;;;;;;22.30;96.10;;;;;;5086565;28;19916;-73
2022/06/21 09:31:50;;;;;;;;;;;23.10;95.00;;;;;;5081330;28;19912;-74
2022/06/21 09:34:31;;;;;;;;;;;23.60;94.40;;;;;;5074372;28;19923;-74
2022/06/21 09:36:59;;;;;;;;;;;24.00;93.70;;;;;;5078078;28;20239;-74
2022/06/21 09:39:49;;;;;;;;;;;23.50;93.80;;;;;;5080754;28;19960;-75
2022/06/21 09:42:31;;;;;;;;;;;24.00;93.90;;;;;;5078369;28;19919;-74
2022/06/21 09:45:09;;;;;;;;;;;24.40;93.60;;;;;;5087387;28;19916;-74
2022/06/21 09:47:47;;;;;;;;;;;24.70;93.80;;;;;;5064314;28;23936;-74
2022/06/21 09:50:31;;;;;;;;;;;24.90;91.90;;;;;;4984672;28;20086;-74
2022/06/21 09:53:17;;;;;;;;;;;24.30;92.10;;;;;;4997656;28;20471;-75
2022/06/21 09:55:42;;;;;;;;;;;24.50;92.90;;;;;;4999754;28;19970;-74
2022/06/21 09:58:11;;;;;;;;;;;23.40;93.10;;;;;;4998442;28;20592;-76
2022/06/21 10:00:45;;;;;;;;;;;23.90;94.00;;;;;;4997262;28;19928;-74
2022/06/21 10:03:13;;;;;;;;;;;24.20;94.40;;;;;;4997020;28;20360;-73
2022/06/21 10:05:51;;;;;;;;;;;24.60;94.10;;;;;;5002821;28;19916;-74
2022/06/21 10:08:40;;;;;;;;;;;24.50;92.20;;;;;;5004854;28;19935;-74
2022/06/21 10:11:14;;;;;;;;;;;24.80;92.10;;;;;;5044505;28;19942;-73
2022/06/21 10:13:58;;;;;;;;;;;24.10;93.30;;;;;;5088005;28;19947;-73
2022/06/21 10:16:43;;;;;;;;;;;24.50;91.70;;;;;;5094889;28;19920;-74
2022/06/21 10:19:13;;;;;;;;;;;24.90;91.20;;;;;;5086163;28;19919;-74
2022/06/21 10:21:41;;;;;;;;;;;25.00;92.40;;;;;;5084336;28;20007;-73
2022/06/21 10:24:07;;;;;;;;;;;25.00;93.20;;;;;;5082553;28;19919;-79
2022/06/21 10:26:33;;;;;;;;;;;24.70;92.30;;;;;;5078977;28;20295;-74
2022/06/21 10:29:13;;;;;;;;;;;23.50;93.50;;;;;;5085693;28;19917;-75
2022/06/21 10:31:51;;;;;;;;;;;22.70;94.50;;;;;;5070983;28;19955;-74
2022/06/21 10:34:36;;;;;;;;;;;23.30;95.00;;;;;;5066272;28;19920;-74
2022/06/21 10:37:20;;;;;;;;;;;23.50;94.40;;;;;;5067566;28;19916;-74
2022/06/21 10:39:49;;;;;;;;;;;23.30;93.90;;;;;;5073792;28;19912;-74
2022/06/21 10:42:48;;;;;;;;;;;22.80;94.10;;;;;;5079059;28;19920;-74
2022/06/21 10:45:33;;;;;;;;;;;23.00;95.10;;;;;;5084617;28;19956;-74
2022/06/21 10:48:04;;;;;;;;;;;22.60;94.40;;;;;;5085062;28;20319;-74
2022/06/21 10:50:30;;;;;;;;;;;22.30;95.10;;;;;;5081325;28;20212;-78
2022/06/21 10:53:21;;;;;;;;;;;22.20;95.50;;;;;;5084500;28;19912;-74
2022/06/21 10:57:09;;;;;;;;;;;21.80;95.10;;;;;;5091127;28;20455;-76
2022/06/21 10:58:41;;;;;;;;;;;21.60;95.10;;;;;;5088208;28;19912;-75
2022/06/21 11:01:21;;;;;;;;;;;21.40;95.40;;;;;;5073378;28;19912;-74
2022/06/21 11:04:05;;;;;;;;;;;21.60;96.60;;;;;;5072793;28;19917;-74
2022/06/21 11:06:36;;;;;;;;;;;21.90;97.10;;;;;;5078911;28;19970;-75
2022/06/21 11:09:05;;;;;;;;;;;22.60;95.00;;;;;;5077417;28;19912;-74
2022/06/21 11:11:50;;;;;;;;;;;22.60;94.80;;;;;;5087211;28;19969;-74
2022/06/21 11:14:32;;;;;;;;;;;22.50;94.60;;;;;;5088465;28;19942;-76
2022/06/21 11:17:16;;;;;;;;;;;22.30;95.90;;;;;;5067586;28;19958;-75
2022/06/21 11:20:02;;;;;;;;;;;22.00;94.90;;;;;;5088570;28;20318;-74
2022/06/21 11:22:28;;;;;;;;;;;21.90;96.10;;;;;;5084882;28;19922;-75
2022/06/21 11:25:12;;;;;;;;;;;21.90;95.00;;;;;;5076805;28;20003;-74
2022/06/21 11:27:43;;;;;;;;;;;22.10;96.50;;;;;;5083526;28;20243;-74
2022/06/21 11:30:09;;;;;;;;;;;22.80;94.70;;;;;;5086435;28;20020;-74
2022/06/21 11:32:40;;;;;;;;;;;23.40;94.80;;;;;;5074748;28;19959;-74
2022/06/21 11:35:13;;;;;;;;;;;23.50;93.90;;;;;;5091529;28;20272;-76
2022/06/21 11:37:45;;;;;;;;;;;24.00;94.10;;;;;;5069913;28;19998;-74
2022/06/21 11:40:13;;;;;;;;;;;24.30;93.00;;;;;;5083354;28;20102;-75
2022/06/21 11:42:44;;;;;;;;;;;24.30;93.00;;;;;;5081197;28;20498;-74
2022/06/21 11:45:17;;;;;;;;;;;23.60;93.10;;;;;;5091426;28;19926;-74
2022/06/21 11:48:02;;;;;;;;;;;23.50;93.90;;;;;;5089361;28;20303;-74
2022/06/21 11:50:33;;;;;;;;;;;23.50;92.90;;;;;;5088406;28;20011;-74
2022/06/21 11:53:01;;;;;;;;;;;23.50;93.40;;;;;;5082938;28;19916;-76
2022/06/21 11:55:31;;;;;;;;;;;23.60;94.10;;;;;;5097258;28;20265;-74
2022/06/21 11:58:15;;;;;;;;;;;23.60;94.20;;;;;;5073245;28;19913;-75
2022/06/21 12:01:01;;;;;;;;;;;23.60;94.50;;;;;;5082249;28;19912;-75
2022/06/21 12:03:33;;;;;;;;;;;23.50;93.10;;;;;;5078275;28;20253;-75
2022/06/21 12:06:05;;;;;;;;;;;24.30;93.20;;;;;;5070781;28;19923;-75
2022/06/21 12:08:43;;;;;;;;;;;24.50;92.40;;;;;;5075208;28;19919;-74
2022/06/21 12:11:18;;;;;;;;;;;24.30;92.40;;;;;;5079178;28;19939;-74
2022/06/21 12:14:19;;;;;;;;;;;24.90;93.40;;;;;;5078136;28;19978;-75
2022/06/21 12:16:51;;;;;;;;;;;25.20;92.00;;;;;;5013622;28;19913;-74
2022/06/21 12:19:18;;;;;;;;;;;25.80;91.80;;;;;;5068588;28;20071;-79
2022/06/21 12:21:48;;;;;;;;;;;25.50;91.40;;;;;;5071230;28;19939;-75
2022/06/21 12:24:16;;;;;;;;;;;25.40;90.00;;;;;;5075833;28;19939;-74
2022/06/21 12:26:42;;;;;;;;;;;25.00;90.30;;;;;;5071086;28;20364;-74
2022/06/21 12:29:12;;;;;;;;;;;25.30;91.40;;;;;;5081273;28;19961;-75
2022/06/21 12:31:41;;;;;;;;;;;25.50;91.80;;;;;;5073648;28;19912;-74
2022/06/21 12:34:09;;;;;;;;;;;24.90;91.40;;;;;;5082024;28;19924;-74
2022/06/21 12:36:41;;;;;;;;;;;24.60;92.30;;;;;;5084123;28;19918;-75
2022/06/21 12:39:10;;;;;;;;;;;24.50;92.70;;;;;;5090958;28;19912;-76
2022/06/21 12:41:42;;;;;;;;;;;24.50;92.00;;;;;;5086729;28;19912;-76
2022/06/21 12:44:23;;;;;;;;;;;24.60;91.00;;;;;;5072772;28;19963;-77
2022/06/21 12:46:48;;;;;;;;;;;24.70;92.20;;;;;;5066545;28;20015;-77
2022/06/21 12:49:23;;;;;;;;;;;25.00;91.80;;;;;;5083460;28;19995;-77
2022/06/21 12:51:53;;;;;;;;;;;24.80;91.90;;;;;;5067116;28;20010;-78
2022/06/21 12:54:24;;;;;;;;;;;24.80;91.40;;;;;;5071738;28;20061;-77
2022/06/21 12:56:53;;;;;;;;;;;24.90;91.70;;;;;;5067679;28;20003;-80
2022/06/21 12:59:31;;;;;;;;;;;25.30;91.20;;;;;;5087869;28;19970;-79
2022/06/21 13:02:11;;;;;;;;;;;25.50;90.70;;;;;;5076267;28;19912;-78
2022/06/21 13:04:46;;;;;;;;;;;25.30;90.60;;;;;;5079846;28;19935;-79
2022/06/21 13:07:32;;;;;;;;;;;25.00;90.40;;;;;;5065770;28;20003;-78
2022/06/21 13:10:12;;;;;;;;;;;24.40;92.40;;;;;;5060172;28;19912;-76
2022/06/21 13:12:41;;;;;;;;;;;24.20;93.00;;;;;;5067257;28;19912;-76
2022/06/21 13:15:24;;;;;;;;;;;24.00;92.80;;;;;;5073756;28;20069;-78
2022/06/21 13:17:56;;;;;;;;;;;23.80;93.70;;;;;;5075170;28;19919;-75
2022/06/21 13:20:30;;;;;;;;;;;23.60;92.70;;;;;;5073852;28;19999;-78
2022/06/21 13:23:07;;;;;;;;;;;23.30;93.40;;;;;;5087094;28;19937;-76
2022/06/21 13:25:39;;;;;;;;;;;23.20;93.30;;;;;;5080723;28;19978;-75
2022/06/21 13:28:17;;;;;;;;;;;23.00;92.80;;;;;;5072990;28;20286;-78
2022/06/21 13:30:48;;;;;;;;;;;22.40;95.40;;;;;;5060822;28;19946;-76
2022/06/21 13:33:20;;;;;;;;;;;22.00;94.60;;;;;;4955206;28;19920;-75
2022/06/21 13:35:57;;;;;;;;;;;21.90;95.00;;;;;;4960748;28;19916;-75
2022/06/21 13:38:26;;;;;;;;;;;21.50;95.00;;;;;;5016808;28;20429;-76
2022/06/21 13:40:55;;;;;;;;;;;21.30;95.70;;;;;;5007549;28;19977;-75
2022/06/21 13:43:38;;;;;;;;;;;21.20;96.70;;;;;;5070582;28;19912;-75
2022/06/21 13:46:24;;;;;;;;;;;21.10;94.60;;;;;;5073396;28;20298;-75
2022/06/21 13:49:19;;;;;;;;;;;21.10;94.80;;;;;;5090910;28;19916;-75
2022/06/21 13:51:56;;;;;;;;;;;21.20;94.60;;;;;;5079796;28;19916;-76
2022/06/21 13:54:34;;;;;;;;;;;21.50;94.80;;;;;;5091664;28;19916;-77
2022/06/21 13:57:09;;;;;;;;;;;21.60;95.80;;;;;;5089628;28;19912;-79
2022/06/21 13:59:36;;;;;;;;;;;22.00;94.60;;;;;;5088203;28;19916;-75
2022/06/21 14:02:20;;;;;;;;;;;22.10;95.10;;;;;;5089651;28;19915;-75
2022/06/21 14:04:49;;;;;;;;;;;22.50;96.40;;;;;;5079356;28;19920;-76
2022/06/21 14:07:51;;;;;;;;;;;22.70;93.80;;;;;;5081647;28;20002;-77
2022/06/21 14:10:35;;;;;;;;;;;22.70;95.20;;;;;;5037867;28;19913;-73
2022/06/21 14:13:07;;;;;;;;;;;23.00;93.70;;;;;;5068922;28;20007;-75
2022/06/21 14:15:48;;;;;;;;;;;22.90;94.70;;;;;;5091689;28;20386;-76
2022/06/21 14:18:17;;;;;;;;;;;23.00;94.70;;;;;;5090209;28;20325;-75
2022/06/21 14:21:02;;;;;;;;;;;22.80;94.90;;;;;;5077151;28;19916;-76
2022/06/21 14:23:31;;;;;;;;;;;23.10;93.70;;;;;;5079802;28;20188;-76
2022/06/21 14:26:17;;;;;;;;;;;23.20;95.90;;;;;;5091590;28;19912;-76
2022/06/21 14:28:52;;;;;;;;;;;23.20;92.90;;;;;;5078190;28;19955;-76
2022/06/21 14:31:31;;;;;;;;;;;22.80;93.10;;;;;;5089282;28;20299;-75
2022/06/21 14:34:02;;;;;;;;;;;22.60;93.30;;;;;;5083292;28;20350;-76
2022/06/21 14:37:03;;;;;;;;;;;22.50;94.20;;;;;;5089882;28;19918;-76
2022/06/21 14:39:37;;;;;;;;;;;22.30;93.90;;;;;;5006502;28;20320;-74
2022/06/21 14:42:17;;;;;;;;;;;22.20;93.90;;;;;;4995826;28;19922;-77
2022/06/21 14:44:46;;;;;;;;;;;22.00;94.30;;;;;;5008303;28;19980;-75
2022/06/21 14:47:17;;;;;;;;;;;22.30;93.80;;;;;;5008051;28;19953;-76
2022/06/21 14:49:58;;;;;;;;;;;22.50;94.90;;;;;;5009908;28;19931;-78
2022/06/21 14:52:30;;;;;;;;;;;22.70;93.70;;;;;;5011712;28;20028;-77
2022/06/21 14:55:10;;;;;;;;;;;23.00;94.60;;;;;;5007275;28;19956;-74
2022/06/21 14:57:39;;;;;;;;;;;22.70;93.10;;;;;;5009705;28;19920;-75